createdAt,value
2023-04-08T00:02:03.992Z,100723.59
2023-04-08T00:05:06.787Z,100724.84
2023-04-08T00:08:08.912Z,100722.44
2023-04-08T00:11:11.494Z,100715.00
2023-04-08T00:14:13.747Z,100722.59
2023-04-08T00:17:16.809Z,100721.72
2023-04-08T00:20:19.021Z,100726.44
2023-04-08T00:23:21.619Z,100727.72
2023-04-08T00:26:23.814Z,100729.41
2023-04-08T00:29:26.330Z,100725.06
2023-04-08T00:32:29.409Z,100719.78
2023-04-08T00:35:32.964Z,100720.88
2023-04-08T00:38:35.273Z,100721.78
2023-04-08T00:41:37.723Z,100728.94
2023-04-08T00:44:39.927Z,100725.72
2023-04-08T00:47:42.619Z,100724.41
2023-04-08T00:50:46.122Z,100728.75
2023-04-08T00:53:48.704Z,100724.50
2023-04-08T00:56:51.048Z,100734.47
2023-04-08T00:59:53.711Z,100728.84
2023-04-08T01:03:21.065Z,100731.56
2023-04-08T01:06:42.706Z,100737.72
2023-04-08T01:09:48.644Z,100724.56
2023-04-08T01:12:56.662Z,100729.94
2023-04-08T01:15:59.407Z,100727.12
2023-04-08T01:19:02.824Z,100729.00
2023-04-08T01:22:29.802Z,100730.72
2023-04-08T01:25:39.193Z,100729.34
2023-04-08T01:28:43.948Z,100733.34
2023-04-08T01:31:48.095Z,100725.25
2023-04-08T01:34:50.332Z,100731.50
2023-04-08T01:37:53.943Z,100727.12
2023-04-08T01:40:58.351Z,100735.84
2023-04-08T01:44:01.779Z,100720.81
2023-04-08T01:47:05.434Z,100731.50
2023-04-08T01:50:09.510Z,100725.13
2023-04-08T01:53:12.751Z,100724.34
2023-04-08T01:56:16.476Z,100723.72
2023-04-08T01:59:20.884Z,100719.28
2023-04-08T02:02:27.128Z,100727.38
2023-04-08T02:05:29.697Z,100727.06
2023-04-08T02:08:36.102Z,100725.37
2023-04-08T02:11:38.585Z,100725.72
2023-04-08T02:14:41.221Z,100718.78
2023-04-08T02:17:50.429Z,100725.84
2023-04-08T02:21:24.313Z,100725.72
2023-04-08T02:24:28.398Z,100719.63
2023-04-08T02:27:35.417Z,100724.81
2023-04-08T02:30:42.378Z,100731.28
2023-04-08T02:33:46.059Z,100715.28
2023-04-08T02:36:48.817Z,100718.03
2023-04-08T02:39:52.250Z,100717.12
2023-04-08T02:42:55.703Z,100716.88
2023-04-08T02:46:03.281Z,100709.66
2023-04-08T02:49:06.214Z,100714.78
2023-04-08T02:52:08.451Z,100720.19
2023-04-08T02:55:11.161Z,100710.06
2023-04-08T02:58:13.421Z,100719.75
2023-04-08T03:01:16.473Z,100721.72
2023-04-08T03:04:18.724Z,100721.09
2023-04-08T03:07:21.252Z,100718.81
2023-04-08T03:10:23.594Z,100723.22
2023-04-08T03:13:26.319Z,100722.25
2023-04-08T03:16:28.729Z,100726.84
2023-04-08T03:19:31.185Z,100729.97
2023-04-08T03:22:33.953Z,100726.00
2023-04-08T03:25:36.404Z,100722.00
2023-04-08T03:28:38.581Z,100732.53
2023-04-08T03:31:41.482Z,100727.31
2023-04-08T03:34:43.851Z,100732.53
2023-04-08T03:37:46.944Z,100739.59
2023-04-08T03:40:49.205Z,100740.16
2023-04-08T03:43:51.691Z,100739.53
2023-04-08T03:46:53.896Z,100743.19
2023-04-08T03:49:56.379Z,100747.41
2023-04-08T03:52:58.642Z,100746.59
2023-04-08T03:56:02.762Z,100751.22
2023-04-08T03:59:04.918Z,100743.38
2023-04-08T04:02:07.753Z,100753.72
2023-04-08T04:05:10.322Z,100748.19
2023-04-08T04:08:12.659Z,100753.59
2023-04-08T04:11:15.157Z,100760.91
2023-04-08T04:14:17.291Z,100761.41
2023-04-08T04:17:19.866Z,100768.63
2023-04-08T04:20:22.104Z,100771.25
2023-04-08T04:23:25.814Z,100767.38
2023-04-08T04:26:28.030Z,100773.66
2023-04-08T04:29:31.969Z,100776.22
2023-04-08T04:32:34.123Z,100777.97
2023-04-08T04:35:36.652Z,100775.53
2023-04-08T04:38:38.936Z,100775.87
2023-04-08T04:41:41.392Z,100772.13
2023-04-08T04:44:44.618Z,100771.38
2023-04-08T04:47:47.127Z,100775.63
2023-04-08T04:50:56.721Z,100779.16
2023-04-08T04:53:59.280Z,100784.47
2023-04-08T04:57:01.572Z,100780.72
2023-04-08T05:00:05.440Z,100780.53
2023-04-08T05:03:08.300Z,100785.66
2023-04-08T05:06:11.448Z,100787.25
2023-04-08T05:09:13.690Z,100785.44
2023-04-08T05:12:16.272Z,100791.88
2023-04-08T05:15:18.490Z,100783.72
2023-04-08T05:18:20.981Z,100794.09
2023-04-08T05:21:23.965Z,100790.72
2023-04-08T05:24:26.399Z,100800.25
2023-04-08T05:27:28.632Z,100800.69
2023-04-08T05:30:31.438Z,100803.09
2023-04-08T05:33:33.672Z,100807.97
2023-04-08T05:36:36.256Z,100808.91
2023-04-08T05:39:38.418Z,100808.91
2023-04-08T05:42:42.690Z,100810.66
2023-04-08T05:45:44.870Z,100810.88
2023-04-08T05:48:47.347Z,100826.22
2023-04-08T05:51:49.548Z,100822.72
2023-04-08T05:54:52.016Z,100812.47
2023-04-08T05:57:54.219Z,100820.13
2023-04-08T06:00:56.811Z,100814.59
2023-04-08T06:03:59.743Z,100826.56
2023-04-08T06:07:03.078Z,100824.09
2023-04-08T06:10:07.209Z,100824.31
2023-04-08T06:13:09.461Z,100826.94
2023-04-08T06:16:21.154Z,100826.16
2023-04-08T06:19:24.750Z,100830.41
2023-04-08T06:22:28.190Z,100833.84
2023-04-08T06:25:30.521Z,100832.88
2023-04-08T06:28:33.063Z,100837.47
2023-04-08T06:31:35.491Z,100842.16
2023-04-08T06:34:38.329Z,100847.59
2023-04-08T06:37:40.573Z,100849.91
2023-04-08T06:40:43.109Z,100852.62
2023-04-08T06:43:45.524Z,100860.47
2023-04-08T06:46:48.011Z,100863.28
2023-04-08T06:49:50.421Z,100863.06
2023-04-08T06:52:52.916Z,100861.41
2023-04-08T06:55:55.541Z,100867.59
2023-04-08T06:58:58.022Z,100861.41
2023-04-08T07:02:00.514Z,100861.28
2023-04-08T07:05:03.142Z,100857.75
2023-04-08T07:08:06.453Z,100865.62
2023-04-08T07:11:08.923Z,100858.56
2023-04-08T07:14:12.274Z,100869.56
2023-04-08T07:17:15.104Z,100863.31
2023-04-08T07:20:18.369Z,100879.12
2023-04-08T07:23:21.164Z,100865.03
2023-04-08T07:26:23.473Z,100872.03
2023-04-08T07:29:26.090Z,100875.44
2023-04-08T07:32:28.747Z,100877.91
2023-04-08T07:35:33.641Z,100882.34
2023-04-08T07:38:36.414Z,100897.25
2023-04-08T07:41:38.894Z,100895.50
2023-04-08T07:44:41.313Z,100896.34
2023-04-08T07:47:44.289Z,100898.37
2023-04-08T07:51:08.303Z,100910.47
2023-04-08T07:54:12.437Z,100909.50
2023-04-08T07:57:14.872Z,100915.28
2023-04-08T08:00:21.610Z,100912.66
2023-04-08T08:03:24.391Z,100911.97
2023-04-08T08:06:27.873Z,100916.97
2023-04-08T08:09:32.086Z,100909.84
2023-04-08T08:12:34.408Z,100921.66
2023-04-08T08:15:37.055Z,100917.03
2023-04-08T08:18:40.532Z,100912.72
2023-04-08T08:21:43.087Z,100914.31
2023-04-08T08:24:45.318Z,100919.59
2023-04-08T08:27:47.861Z,100919.09
2023-04-08T08:30:50.859Z,100929.19
2023-04-08T08:33:53.495Z,100937.03
2023-04-08T08:36:55.950Z,100930.78
2023-04-08T08:39:58.460Z,100932.81
2023-04-08T08:43:01.406Z,100937.28
2023-04-08T08:46:04.180Z,100932.84
2023-04-08T08:49:06.551Z,100936.38
2023-04-08T08:52:09.906Z,100937.28
2023-04-08T08:55:27.629Z,100937.97
2023-04-08T08:58:35.330Z,100947.31
2023-04-08T09:01:40.566Z,100947.59
2023-04-08T09:04:56.774Z,100954.59
2023-04-08T09:07:59.019Z,100952.03
2023-04-08T09:11:14.878Z,100956.59
2023-04-08T09:14:21.956Z,100955.81
2023-04-08T09:17:39.610Z,100962.13
2023-04-08T09:20:52.611Z,100959.00
2023-04-08T09:23:55.191Z,100974.06
2023-04-08T09:26:57.665Z,100970.62
2023-04-08T09:30:32.205Z,100972.50
2023-04-08T09:33:34.368Z,100975.16
2023-04-08T09:36:36.904Z,100976.19
2023-04-08T09:39:39.094Z,100968.63
2023-04-08T09:42:46.009Z,100980.09
2023-04-08T09:45:49.394Z,100980.16
2023-04-08T09:49:10.872Z,100982.34
2023-04-08T09:52:30.180Z,100986.59
2023-04-08T09:55:36.477Z,100991.22
2023-04-08T09:58:59.416Z,100985.91
2023-04-08T10:02:07.947Z,100983.97
2023-04-08T10:05:13.410Z,100986.47
2023-04-08T10:08:16.339Z,100993.88
2023-04-08T10:11:18.951Z,100989.25
2023-04-08T10:14:22.200Z,100994.69
2023-04-08T10:17:27.577Z,100993.78
2023-04-08T10:20:38.822Z,100990.56
2023-04-08T10:23:55.730Z,100992.13
2023-04-08T10:26:58.089Z,100985.38
2023-04-08T10:30:00.582Z,100990.00
2023-04-08T10:33:10.515Z,100988.72
2023-04-08T10:36:13.369Z,100995.44
2023-04-08T10:39:16.811Z,100986.47
2023-04-08T10:42:19.328Z,100989.31
2023-04-08T10:45:22.208Z,100987.84
2023-04-08T10:48:25.444Z,100990.91
2023-04-08T10:51:33.727Z,100991.22
2023-04-08T10:54:37.085Z,100994.62
2023-04-08T10:57:41.322Z,100994.13
2023-04-08T11:00:43.809Z,100996.75
2023-04-08T11:03:46.294Z,101004.09
2023-04-08T11:06:50.190Z,100995.66
2023-04-08T11:09:52.368Z,100994.25
2023-04-08T11:12:55.881Z,100996.00
2023-04-08T11:15:59.543Z,100994.75
2023-04-08T11:19:05.169Z,100998.34
2023-04-08T11:22:09.400Z,100995.84
2023-04-08T11:25:12.033Z,100990.34
2023-04-08T11:28:14.882Z,100992.66
2023-04-08T11:31:19.771Z,101000.91
2023-04-08T11:34:24.635Z,100998.72
2023-04-08T11:37:29.442Z,100994.88
2023-04-08T11:40:31.964Z,101000.78
2023-04-08T11:43:36.596Z,100997.25
2023-04-08T11:46:40.846Z,101005.12
2023-04-08T11:49:47.417Z,101002.69
2023-04-08T11:52:51.025Z,101002.25
2023-04-08T11:55:53.510Z,101004.59
2023-04-08T11:58:55.814Z,101003.19
2023-04-08T12:01:59.945Z,100996.09
2023-04-08T12:05:02.682Z,100999.22
2023-04-08T12:08:05.307Z,101000.25
2023-04-08T12:11:19.246Z,100998.84
2023-04-08T12:14:26.774Z,100989.50
2023-04-08T12:17:30.815Z,100998.47
2023-04-08T12:20:33.061Z,100995.84
2023-04-08T12:23:35.614Z,101000.31
2023-04-08T12:26:38.050Z,100996.75
2023-04-08T12:29:40.552Z,100994.94
2023-04-08T12:32:46.248Z,100989.22
2023-04-08T12:35:48.847Z,100987.06
2023-04-08T12:38:51.357Z,100987.31
2023-04-08T12:41:54.368Z,100992.31
2023-04-08T12:44:56.566Z,100991.09
2023-04-08T12:47:59.121Z,100997.44
2023-04-08T12:51:01.385Z,100994.94
2023-04-08T12:54:04.762Z,100991.50
2023-04-08T12:57:07.117Z,100986.81
2023-04-08T13:00:11.326Z,100988.94
2023-04-08T13:03:15.854Z,100993.88
2023-04-08T13:06:18.469Z,100990.53
2023-04-08T13:09:20.860Z,100988.38
2023-04-08T13:12:23.703Z,100989.41
2023-04-08T13:15:28.234Z,100990.22
2023-04-08T13:18:31.062Z,100995.06
2023-04-08T13:21:33.266Z,100992.50
2023-04-08T13:24:35.796Z,100993.84
2023-04-08T13:27:38.157Z,100987.38
2023-04-08T13:30:40.811Z,100986.97
2023-04-08T13:33:43.114Z,100983.59
2023-04-08T13:36:45.593Z,100981.75
2023-04-08T13:39:47.779Z,100976.09
2023-04-08T13:42:50.237Z,100981.34
2023-04-08T13:45:52.504Z,100980.53
2023-04-08T13:48:55.259Z,100979.72
2023-04-08T13:51:57.416Z,100977.28
2023-04-08T13:55:00.721Z,100979.06
2023-04-08T13:58:06.653Z,100979.44
2023-04-08T14:01:13.884Z,100977.53
2023-04-08T14:04:16.332Z,100973.63
2023-04-08T14:07:19.835Z,100980.81
2023-04-08T14:10:22.404Z,100982.59
2023-04-08T14:13:24.740Z,100982.94
2023-04-08T14:16:27.989Z,100980.66
2023-04-08T14:19:30.374Z,100974.84
2023-04-08T14:22:32.883Z,100984.91
2023-04-08T14:25:35.194Z,100979.72
2023-04-08T14:28:37.862Z,100982.72
2023-04-08T14:31:40.065Z,100982.22
2023-04-08T14:34:42.513Z,100988.66
2023-04-08T14:37:44.751Z,100983.66
2023-04-08T14:40:47.279Z,100978.41
2023-04-08T14:43:49.492Z,100981.41
2023-04-08T14:46:52.113Z,100984.31
2023-04-08T14:49:54.377Z,100988.59
2023-04-08T14:52:56.840Z,100990.19
2023-04-08T14:55:59.534Z,100990.28
2023-04-08T14:59:01.951Z,100984.22
2023-04-08T15:02:04.423Z,100979.66
2023-04-08T15:05:07.365Z,100982.28
2023-04-08T15:08:09.492Z,100990.34
2023-04-08T15:11:12.038Z,100981.63
2023-04-08T15:14:14.265Z,100982.66
2023-04-08T15:17:17.080Z,100983.09
2023-04-08T15:20:20.183Z,100981.25
2023-04-08T15:23:22.716Z,100987.22
2023-04-08T15:26:24.992Z,100993.41
2023-04-08T15:29:27.414Z,100986.19
2023-04-08T15:32:29.978Z,100981.78
2023-04-08T15:35:33.251Z,100986.84
2023-04-08T15:38:35.686Z,100984.09
2023-04-08T15:41:38.131Z,100986.13
2023-04-08T15:44:40.932Z,100991.94
2023-04-08T15:47:43.424Z,101002.66
2023-04-08T15:50:45.932Z,101000.16
2023-04-08T15:53:51.536Z,100999.53
2023-04-08T15:56:53.810Z,101004.00
2023-04-08T15:59:56.297Z,100999.47
2023-04-08T16:02:58.765Z,100998.88
2023-04-08T16:06:01.735Z,101001.06
2023-04-08T16:09:04.109Z,101002.56
2023-04-08T16:12:06.616Z,101004.47
2023-04-08T16:15:09.165Z,100999.75
2023-04-08T16:18:11.793Z,101003.41
2023-04-08T16:21:13.981Z,101012.63
2023-04-08T16:24:16.502Z,101009.25
2023-04-08T16:27:18.674Z,101016.00
2023-04-08T16:30:21.267Z,101019.97
2023-04-08T16:33:29.729Z,101023.37
2023-04-08T16:36:32.164Z,101024.63
2023-04-08T16:39:34.291Z,101025.78
2023-04-08T16:42:36.814Z,101033.41
2023-04-08T16:45:40.340Z,101040.22
2023-04-08T16:48:43.926Z,101036.00
2023-04-08T16:51:46.442Z,101040.16
2023-04-08T16:54:49.011Z,101038.44
2023-04-08T16:57:51.212Z,101048.41
2023-04-08T17:00:53.844Z,101050.59
2023-04-08T17:03:57.228Z,101048.69
2023-04-08T17:07:00.159Z,101049.44
2023-04-08T17:10:03.523Z,101049.84
2023-04-08T17:13:07.125Z,101055.44
2023-04-08T17:16:14.412Z,101059.81
2023-04-08T17:19:17.881Z,101062.16
2023-04-08T17:22:21.463Z,101059.44
2023-04-08T17:25:24.551Z,101069.00
2023-04-08T17:28:27.030Z,101064.72
2023-04-08T17:31:29.932Z,101075.00
2023-04-08T17:34:33.078Z,101073.63
2023-04-08T17:37:36.275Z,101079.22
2023-04-08T17:40:38.782Z,101077.56
2023-04-08T17:43:42.459Z,101086.06
2023-04-08T17:46:44.627Z,101085.09
2023-04-08T17:49:47.096Z,101082.69
2023-04-08T17:52:50.291Z,101087.94
2023-04-08T17:55:54.706Z,101089.59
2023-04-08T17:58:56.925Z,101089.97
2023-04-08T18:01:59.616Z,101086.91
2023-04-08T18:05:03.271Z,101095.59
2023-04-08T18:08:05.616Z,101094.94
2023-04-08T18:11:08.283Z,101087.78
2023-04-08T18:14:10.484Z,101102.78
2023-04-08T18:17:14.454Z,101100.84
2023-04-08T18:20:16.512Z,101098.44
2023-04-08T18:23:18.847Z,101106.03
2023-04-08T18:26:21.462Z,101106.44
2023-04-08T18:29:23.926Z,101109.69
2023-04-08T18:32:26.241Z,101106.59
2023-04-08T18:35:28.958Z,101116.75
2023-04-08T18:38:31.319Z,101115.97
2023-04-08T18:41:33.772Z,101127.75
2023-04-08T18:44:35.966Z,101124.16
2023-04-08T18:47:38.398Z,101129.19
2023-04-08T18:50:40.718Z,101129.25
2023-04-08T18:53:43.784Z,101138.31
2023-04-08T18:56:46.001Z,101132.44
2023-04-08T18:59:48.547Z,101141.41
2023-04-08T19:02:50.998Z,101133.72
2023-04-08T19:05:53.657Z,101130.88
2023-04-08T19:08:56.012Z,101140.12
2023-04-08T19:11:58.504Z,101136.22
2023-04-08T19:15:00.823Z,101138.31
2023-04-08T19:18:04.121Z,101130.97
2023-04-08T19:21:06.360Z,101141.63
2023-04-08T19:24:09.276Z,101141.31
2023-04-08T19:27:13.898Z,101145.13
2023-04-08T19:30:16.521Z,101146.09
2023-04-08T19:33:19.475Z,101145.16
2023-04-08T19:36:22.060Z,101145.97
2023-04-08T19:39:26.711Z,101143.34
2023-04-08T19:42:30.635Z,101151.75
2023-04-08T19:45:32.782Z,101154.00
2023-04-08T19:48:35.729Z,101154.91
2023-04-08T19:51:37.975Z,101159.88
2023-04-08T19:54:41.397Z,101160.09
2023-04-08T19:57:43.671Z,101160.81
2023-04-08T20:00:46.326Z,101154.69
2023-04-08T20:03:52.628Z,101159.69
2023-04-08T20:06:55.068Z,101155.34
2023-04-08T20:09:57.749Z,101159.34
2023-04-08T20:12:59.965Z,101162.06
2023-04-08T20:16:02.761Z,101164.69
2023-04-08T20:19:05.071Z,101162.97
2023-04-08T20:22:07.792Z,101163.28
2023-04-08T20:25:09.989Z,101162.84
2023-04-08T20:28:12.793Z,101159.00
2023-04-08T20:31:15.992Z,101162.97
2023-04-08T20:34:18.479Z,101161.78
2023-04-08T20:37:20.519Z,101156.16
2023-04-08T20:40:22.946Z,101159.84
2023-04-08T20:43:25.128Z,101166.22
2023-04-08T20:46:27.680Z,101166.16
2023-04-08T20:49:29.865Z,101166.91
2023-04-08T20:52:32.625Z,101165.00
2023-04-08T20:55:34.849Z,101163.38
2023-04-08T20:58:37.301Z,101167.81
2023-04-08T21:01:39.769Z,101173.28
2023-04-08T21:04:42.666Z,101171.31
2023-04-08T21:07:44.964Z,101176.00
2023-04-08T21:10:47.634Z,101171.66
2023-04-08T21:13:49.791Z,101178.63
2023-04-08T21:16:52.428Z,101182.00
2023-04-08T21:19:54.628Z,101181.22
2023-04-08T21:22:58.905Z,101174.12
2023-04-08T21:26:03.296Z,101176.00
2023-04-08T21:29:06.285Z,101179.37
2023-04-08T21:32:08.601Z,101181.88
2023-04-08T21:35:11.245Z,101180.94
2023-04-08T21:38:13.477Z,101180.94
2023-04-08T21:41:17.187Z,101175.38
2023-04-08T21:44:19.455Z,101183.66
2023-04-08T21:47:22.091Z,101177.84
2023-04-08T21:50:24.636Z,101178.31
2023-04-08T21:53:27.161Z,101180.06
2023-04-08T21:56:29.417Z,101180.78
2023-04-08T21:59:31.946Z,101181.53
2023-04-08T22:02:40.658Z,101184.62
2023-04-08T22:05:43.228Z,101182.44
2023-04-08T22:08:45.764Z,101179.06
2023-04-08T22:11:48.315Z,101183.09
2023-04-08T22:14:50.630Z,101182.69
2023-04-08T22:17:53.179Z,101176.53
2023-04-08T22:20:56.010Z,101175.59
2023-04-08T22:23:58.419Z,101177.31
2023-04-08T22:27:01.094Z,101169.31
2023-04-08T22:30:03.988Z,101173.97
2023-04-08T22:33:06.177Z,101183.19
2023-04-08T22:36:08.698Z,101186.16
2023-04-08T22:39:11.015Z,101180.56
2023-04-08T22:42:13.499Z,101179.69
2023-04-08T22:45:15.736Z,101186.28
2023-04-08T22:48:18.217Z,101183.66
2023-04-08T22:51:20.934Z,101174.25
2023-04-08T22:54:23.412Z,101178.56
2023-04-08T22:57:25.728Z,101178.56
2023-04-08T23:00:29.482Z,101182.91
2023-04-08T23:03:31.741Z,101180.41
2023-04-08T23:06:34.209Z,101184.69
2023-04-08T23:09:36.462Z,101183.03
2023-04-08T23:12:38.955Z,101179.97
2023-04-08T23:15:41.648Z,101184.56
2023-04-08T23:18:44.186Z,101182.97
2023-04-08T23:21:46.455Z,101193.53
2023-04-08T23:24:48.922Z,101186.50
2023-04-08T23:27:51.243Z,101185.47
2023-04-08T23:30:53.696Z,101187.13
2023-04-08T23:33:56.175Z,101180.13
2023-04-08T23:36:58.597Z,101182.44
2023-04-08T23:40:00.902Z,101184.31
2023-04-08T23:43:03.427Z,101176.44
2023-04-08T23:46:05.638Z,101186.50
2023-04-08T23:49:08.154Z,101174.44
2023-04-08T23:52:10.512Z,101183.28
2023-04-08T23:55:13.095Z,101172.63
2023-04-08T23:58:15.586Z,101176.16
